createdAt,value
2018-03-29T00:02:19.223Z,13.87
2018-03-29T00:04:46.738Z,13.90
2018-03-29T00:07:14.256Z,14.60
2018-03-29T00:09:41.990Z,12.93
2018-03-29T00:12:09.511Z,13.50
2018-03-29T00:14:37.110Z,13.13
2018-03-29T00:17:05.455Z,13.30
2018-03-29T00:19:33.121Z,14.17
2018-03-29T00:22:00.713Z,12.80
2018-03-29T00:24:28.312Z,13.73
2018-03-29T00:26:55.835Z,13.47
2018-03-29T00:29:23.383Z,13.90
2018-03-29T00:31:50.928Z,14.37
2018-03-29T00:34:18.442Z,14.27
2018-03-29T00:36:46.004Z,12.70
2018-03-29T00:39:13.531Z,13.37
2018-03-29T00:41:41.831Z,13.37
2018-03-29T00:44:09.340Z,13.80
2018-03-29T00:46:36.947Z,15.17
2018-03-29T00:49:04.517Z,14.60
2018-03-29T00:51:32.278Z,15.37
2018-03-29T00:53:59.909Z,17.43
2018-03-29T00:56:27.471Z,18.33
2018-03-29T00:58:54.996Z,18.43
2018-03-29T01:01:22.685Z,18.23
2018-03-29T01:03:50.278Z,21.03
2018-03-29T01:06:18.592Z,22.10
2018-03-29T01:08:46.139Z,23.67
2018-03-29T01:11:13.658Z,22.57
2018-03-29T01:13:41.202Z,23.00
2018-03-29T01:16:08.712Z,22.97
2018-03-29T01:18:36.245Z,23.50
2018-03-29T01:21:03.831Z,24.57
2018-03-29T01:23:31.547Z,23.70
2018-03-29T01:25:59.258Z,23.17
2018-03-29T01:28:26.819Z,23.90
2018-03-29T01:30:54.328Z,22.20
2018-03-29T01:33:21.966Z,22.63
2018-03-29T01:35:49.508Z,23.97
2018-03-29T01:38:17.122Z,23.00
2018-03-29T01:40:44.633Z,22.20
2018-03-29T01:43:12.145Z,22.80
2018-03-29T01:45:39.676Z,22.40
2018-03-29T01:48:07.203Z,22.80
2018-03-29T01:50:34.851Z,22.13
2018-03-29T01:53:02.526Z,21.57
2018-03-29T01:55:30.939Z,22.70
2018-03-29T01:57:58.551Z,22.03
2018-03-29T02:00:26.193Z,22.20
2018-03-29T02:02:53.725Z,23.27
2018-03-29T02:05:22.323Z,22.77
2018-03-29T02:07:50.658Z,23.07
2018-03-29T02:10:18.210Z,23.60
2018-03-29T02:12:45.726Z,21.93
2018-03-29T02:15:13.246Z,23.50
2018-03-29T02:17:40.783Z,22.53
2018-03-29T02:20:08.294Z,22.93
2018-03-29T02:22:35.886Z,20.70
2018-03-29T02:25:03.498Z,22.40
2018-03-29T02:27:31.979Z,23.43
2018-03-29T02:29:59.620Z,23.00
2018-03-29T02:32:27.212Z,23.67
2018-03-29T02:34:54.722Z,23.27
2018-03-29T02:37:23.041Z,22.80
2018-03-29T02:39:50.628Z,22.80
2018-03-29T02:42:18.180Z,22.83
2018-03-29T02:44:45.707Z,22.67
2018-03-29T02:47:13.217Z,22.50
2018-03-29T02:49:40.760Z,22.37
2018-03-29T02:52:09.043Z,22.27
2018-03-29T02:54:37.403Z,21.93
2018-03-29T02:57:04.999Z,21.63
2018-03-29T02:59:33.411Z,20.93
2018-03-29T03:02:01.056Z,21.40
2018-03-29T03:04:28.730Z,20.23
2018-03-29T03:06:57.058Z,20.67
2018-03-29T03:09:24.586Z,19.53
2018-03-29T03:11:52.134Z,20.00
2018-03-29T03:14:19.763Z,19.43
2018-03-29T03:16:47.312Z,20.27
2018-03-29T03:19:14.836Z,20.27
2018-03-29T03:21:42.351Z,19.07
2018-03-29T03:24:09.886Z,19.33
2018-03-29T03:26:37.420Z,19.43
2018-03-29T03:29:05.034Z,19.13
2018-03-29T03:31:32.694Z,19.17
2018-03-29T03:34:00.400Z,19.70
2018-03-29T03:36:28.813Z,17.77
2018-03-29T03:38:56.386Z,18.43
2018-03-29T03:41:24.663Z,18.20
2018-03-29T03:43:53.021Z,17.80
2018-03-29T03:46:20.644Z,18.00
2018-03-29T03:48:49.041Z,18.13
2018-03-29T03:51:16.608Z,18.00
2018-03-29T03:53:44.896Z,18.17
2018-03-29T03:56:12.431Z,17.93
2018-03-29T03:58:39.968Z,17.40
2018-03-29T04:01:07.505Z,18.10
2018-03-29T04:03:35.926Z,18.37
2018-03-29T04:06:04.068Z,18.67
2018-03-29T04:08:32.501Z,17.47
2018-03-29T04:11:00.175Z,17.23
2018-03-29T04:13:27.706Z,17.73
2018-03-29T04:15:56.016Z,16.97
2018-03-29T04:18:23.562Z,15.47
2018-03-29T04:20:51.140Z,15.37
2018-03-29T04:23:19.465Z,15.17
2018-03-29T04:25:47.008Z,16.03
2018-03-29T04:28:15.312Z,16.63
2018-03-29T04:30:42.840Z,16.40
2018-03-29T04:33:10.404Z,16.23
2018-03-29T04:35:38.013Z,16.33
2018-03-29T04:38:06.354Z,16.83
2018-03-29T04:40:33.909Z,17.23
2018-03-29T04:43:01.623Z,18.97
2018-03-29T04:45:30.100Z,18.53
2018-03-29T04:47:58.528Z,18.13
2018-03-29T04:50:26.083Z,16.73
2018-03-29T04:52:54.375Z,16.90
2018-03-29T04:55:21.943Z,19.03
2018-03-29T04:57:49.556Z,17.50
2018-03-29T05:00:17.122Z,19.00
2018-03-29T05:02:44.668Z,18.80
2018-03-29T05:05:12.947Z,17.73
2018-03-29T05:07:40.487Z,18.93
2018-03-29T05:10:08.008Z,18.53
2018-03-29T05:12:36.423Z,19.77
2018-03-29T05:15:04.059Z,17.47
2018-03-29T05:17:31.673Z,18.50
2018-03-29T05:19:59.622Z,17.60
2018-03-29T05:22:27.151Z,17.77
2018-03-29T05:24:54.684Z,18.07
2018-03-29T05:27:26.458Z,17.50
2018-03-29T05:29:54.008Z,19.07
2018-03-29T05:32:22.298Z,19.40
2018-03-29T05:34:49.898Z,18.40
2018-03-29T05:37:17.453Z,18.70
2018-03-29T05:39:45.032Z,18.50
2018-03-29T05:42:12.545Z,19.10
2018-03-29T05:44:40.069Z,20.10
2018-03-29T05:47:07.595Z,20.70
2018-03-29T05:49:35.173Z,20.63
2018-03-29T05:52:02.840Z,19.97
2018-03-29T05:54:30.467Z,21.53
2018-03-29T05:56:58.438Z,21.83
2018-03-29T05:59:25.967Z,20.87
2018-03-29T06:01:53.511Z,21.37
2018-03-29T06:04:21.068Z,20.97
2018-03-29T06:06:48.588Z,21.47
2018-03-29T06:09:16.184Z,21.37
2018-03-29T06:11:43.709Z,21.50
2018-03-29T06:14:12.084Z,20.37
2018-03-29T06:16:45.266Z,20.73
2018-03-29T06:19:12.810Z,21.17
2018-03-29T06:21:41.087Z,21.37
2018-03-29T06:24:09.412Z,20.90
2018-03-29T06:26:37.023Z,22.17
2018-03-29T06:29:04.595Z,24.60
2018-03-29T06:31:32.999Z,23.80
2018-03-29T06:34:01.477Z,23.47
2018-03-29T06:36:29.129Z,25.13
2018-03-29T06:38:56.644Z,26.20
2018-03-29T06:41:24.963Z,25.23
2018-03-29T06:43:52.545Z,25.53
2018-03-29T06:46:20.122Z,25.13
2018-03-29T06:48:48.754Z,24.97
2018-03-29T06:51:21.398Z,24.30
2018-03-29T06:53:48.930Z,24.20
2018-03-29T06:56:17.348Z,23.90
2018-03-29T06:58:44.868Z,24.97
2018-03-29T07:01:12.393Z,25.80
2018-03-29T07:03:39.923Z,26.63
2018-03-29T07:06:07.450Z,24.07
2018-03-29T07:08:35.039Z,26.00
2018-03-29T07:11:02.646Z,26.50
2018-03-29T07:13:30.461Z,26.67
2018-03-29T07:15:58.002Z,24.97
2018-03-29T07:18:26.314Z,25.00
2018-03-29T07:20:53.877Z,23.77
2018-03-29T07:23:22.163Z,24.87
2018-03-29T07:25:50.545Z,24.80
2018-03-29T07:28:18.840Z,24.33
2018-03-29T07:30:47.336Z,24.33
2018-03-29T07:33:15.612Z,23.47
2018-03-29T07:35:43.903Z,25.47
2018-03-29T07:38:12.949Z,24.83
2018-03-29T07:40:40.957Z,23.13
2018-03-29T07:43:08.612Z,22.50
2018-03-29T07:45:36.138Z,21.27
2018-03-29T07:48:04.644Z,21.47
2018-03-29T07:50:32.231Z,22.67
2018-03-29T07:52:59.892Z,21.57
2018-03-29T07:55:27.450Z,20.67
2018-03-29T07:57:55.764Z,21.00
2018-03-29T08:00:23.294Z,21.00
2018-03-29T08:02:51.622Z,20.60
2018-03-29T08:05:19.208Z,21.03
2018-03-29T08:07:46.719Z,18.30
2018-03-29T08:10:14.331Z,20.90
2018-03-29T08:12:41.838Z,19.97
2018-03-29T08:15:09.377Z,19.03
2018-03-29T08:17:36.914Z,17.93
2018-03-29T08:20:04.483Z,19.00
2018-03-29T08:22:32.158Z,19.67
2018-03-29T08:24:59.815Z,19.23
2018-03-29T08:27:28.187Z,18.20
2018-03-29T08:29:55.713Z,18.40
2018-03-29T08:32:24.013Z,19.40
2018-03-29T08:34:52.292Z,18.33
2018-03-29T08:37:20.668Z,18.27
2018-03-29T08:39:48.270Z,17.10
2018-03-29T08:42:15.789Z,17.47
2018-03-29T08:44:43.332Z,18.77
2018-03-29T08:47:10.887Z,17.93
2018-03-29T08:49:38.425Z,16.50
2018-03-29T08:52:06.046Z,16.97
2018-03-29T08:54:33.754Z,17.20
2018-03-29T08:57:01.460Z,15.93
2018-03-29T08:59:29.035Z,16.73
2018-03-29T09:01:56.626Z,15.53
2018-03-29T09:04:24.164Z,15.27
2018-03-29T09:06:51.777Z,15.63
2018-03-29T09:09:19.407Z,14.77
2018-03-29T09:11:46.959Z,15.63
2018-03-29T09:14:14.507Z,16.70
2018-03-29T09:16:42.083Z,14.97
2018-03-29T09:19:09.599Z,14.90
2018-03-29T09:21:37.964Z,13.80
2018-03-29T09:24:05.590Z,13.40
2018-03-29T09:26:33.265Z,12.77
2018-03-29T09:29:00.875Z,13.17
2018-03-29T09:31:28.584Z,13.13
2018-03-29T09:33:56.165Z,13.47
2018-03-29T09:36:24.449Z,12.53
2018-03-29T09:38:52.804Z,13.10
2018-03-29T09:41:20.444Z,13.03
2018-03-29T09:43:48.010Z,11.37
2018-03-29T09:46:15.546Z,11.63
2018-03-29T09:48:43.060Z,11.83
2018-03-29T09:51:10.602Z,11.27
2018-03-29T09:53:38.896Z,10.67
2018-03-29T09:56:07.212Z,10.17
2018-03-29T09:58:35.097Z,11.13
2018-03-29T10:01:10.565Z,10.00
2018-03-29T10:03:39.938Z,9.67
2018-03-29T10:06:13.168Z,9.60
2018-03-29T10:08:40.688Z,9.57
2018-03-29T10:11:08.584Z,9.60
2018-03-29T10:13:36.896Z,9.27
2018-03-29T10:16:04.485Z,9.13
2018-03-29T10:18:32.130Z,9.80
2018-03-29T10:20:59.906Z,10.23
2018-03-29T10:23:27.426Z,9.83
2018-03-29T10:25:54.981Z,9.57
2018-03-29T10:28:22.579Z,10.50
2018-03-29T10:30:50.121Z,10.43
2018-03-29T10:33:17.676Z,10.03
2018-03-29T10:35:45.232Z,10.13
2018-03-29T10:38:13.549Z,9.77
2018-03-29T10:40:41.072Z,12.07
2018-03-29T10:43:11.227Z,10.60
2018-03-29T10:45:38.903Z,11.97
2018-03-29T10:48:06.451Z,12.27
2018-03-29T10:50:37.237Z,10.60
2018-03-29T10:53:06.038Z,12.13
2018-03-29T11:00:55.311Z,9.20
2018-03-29T11:03:22.889Z,10.53
2018-03-29T11:11:06.474Z,6.70
2018-03-29T11:16:51.147Z,6.03
2018-03-29T11:19:19.462Z,6.03
2018-03-29T11:21:47.042Z,6.53
2018-03-29T11:24:14.566Z,5.37
2018-03-29T11:26:44.188Z,5.60
2018-03-29T11:29:12.296Z,5.20
2018-03-29T11:31:43.861Z,6.40
2018-03-29T11:34:12.723Z,6.07
2018-03-29T11:36:40.296Z,6.30
2018-03-29T11:39:07.823Z,5.50
2018-03-29T11:41:35.407Z,4.10
2018-03-29T11:44:02.958Z,3.93
2018-03-29T11:46:30.647Z,3.83
2018-03-29T11:48:58.424Z,4.47
2018-03-29T11:51:25.950Z,5.40
2018-03-29T11:53:53.552Z,5.53
2018-03-29T11:56:21.927Z,3.83
2018-03-29T11:58:50.252Z,3.30
2018-03-29T12:01:17.755Z,3.60
2018-03-29T12:03:46.046Z,3.97
2018-03-29T12:06:13.596Z,4.00
2018-03-29T12:08:41.138Z,3.90
2018-03-29T12:11:08.651Z,4.03
2018-03-29T12:13:36.261Z,3.60
2018-03-29T12:16:03.930Z,2.87
2018-03-29T12:18:32.379Z,2.90
2018-03-29T12:21:00.438Z,3.13
2018-03-29T12:23:28.324Z,3.00
2018-03-29T12:25:55.886Z,3.03
2018-03-29T12:28:23.433Z,3.03
2018-03-29T12:30:51.776Z,2.37
2018-03-29T12:33:19.329Z,2.07
2018-03-29T12:35:46.860Z,2.40
2018-03-29T12:38:15.141Z,2.57
2018-03-29T12:40:43.415Z,2.80
2018-03-29T12:43:10.953Z,3.00
2018-03-29T12:45:38.516Z,3.37
2018-03-29T12:48:06.158Z,3.47
2018-03-29T12:50:33.884Z,3.27
2018-03-29T12:53:01.590Z,2.83
2018-03-29T12:55:39.150Z,1.93
2018-03-29T12:58:10.964Z,1.97
2018-03-29T13:00:38.494Z,2.10
2018-03-29T13:03:06.033Z,2.07
2018-03-29T13:05:33.703Z,1.90
2018-03-29T13:08:01.467Z,2.30
2018-03-29T13:10:29.145Z,2.00
2018-03-29T13:12:56.780Z,2.03
2018-03-29T13:15:24.311Z,1.80
2018-03-29T13:17:52.139Z,2.00
2018-03-29T13:20:19.860Z,1.70
2018-03-29T13:22:48.351Z,2.10
2018-03-29T13:25:15.932Z,1.70
2018-03-29T13:27:43.440Z,1.77
2018-03-29T13:30:10.961Z,1.77
2018-03-29T13:32:38.495Z,2.20
2018-03-29T13:35:06.854Z,2.07
2018-03-29T13:37:34.429Z,2.20
2018-03-29T13:40:02.121Z,2.23
2018-03-29T13:42:29.744Z,2.40
2018-03-29T13:44:57.266Z,2.60
2018-03-29T13:47:24.777Z,2.80
2018-03-29T13:49:52.639Z,2.50
2018-03-29T13:52:20.918Z,2.97
2018-03-29T13:54:49.896Z,3.00
2018-03-29T13:57:17.411Z,3.20
2018-03-29T13:59:45.726Z,3.13
2018-03-29T14:02:13.252Z,3.03
2018-03-29T14:04:40.887Z,3.43
2018-03-29T14:07:08.323Z,2.87
2018-03-29T14:09:35.932Z,3.10
2018-03-29T14:12:03.642Z,3.53
2018-03-29T14:14:31.402Z,3.60
2018-03-29T14:16:59.988Z,3.50
2018-03-29T14:19:27.663Z,3.47
2018-03-29T14:21:55.207Z,3.90
2018-03-29T14:24:22.795Z,4.10
2018-03-29T14:26:50.373Z,3.90
2018-03-29T14:29:17.903Z,4.37
2018-03-29T14:31:45.426Z,4.03
2018-03-29T14:34:12.979Z,4.30
2018-03-29T14:36:41.068Z,4.20
2018-03-29T14:39:08.628Z,4.20
2018-03-29T14:41:36.243Z,4.20
2018-03-29T14:44:03.899Z,4.60
2018-03-29T14:46:32.283Z,4.70
2018-03-29T14:49:00.008Z,4.67
2018-03-29T14:51:28.436Z,4.57
2018-03-29T14:53:55.965Z,4.43
2018-03-29T14:56:23.495Z,4.60
2018-03-29T14:58:51.046Z,4.53
2018-03-29T15:01:18.634Z,4.43
2018-03-29T15:03:46.171Z,4.03
2018-03-29T15:06:13.702Z,4.13
2018-03-29T15:08:41.988Z,4.03
2018-03-29T15:11:10.325Z,4.57
2018-03-29T15:13:37.880Z,4.73
2018-03-29T15:16:05.420Z,4.60
2018-03-29T15:18:33.757Z,4.10
2018-03-29T15:21:01.359Z,4.23
2018-03-29T15:23:29.020Z,4.80
2018-03-29T15:25:56.555Z,4.40
2018-03-29T15:28:24.089Z,5.07
2018-03-29T15:30:52.439Z,4.63
2018-03-29T15:33:20.108Z,4.43
2018-03-29T15:35:47.680Z,5.10
2018-03-29T15:38:15.227Z,4.57
2018-03-29T15:40:42.767Z,4.43
2018-03-29T15:43:11.049Z,4.20
2018-03-29T15:45:39.351Z,4.27
2018-03-29T15:48:07.660Z,4.53
2018-03-29T15:50:35.221Z,4.20
2018-03-29T15:53:02.750Z,4.90
2018-03-29T15:55:30.327Z,5.20
2018-03-29T15:57:57.841Z,4.90
2018-03-29T16:00:25.360Z,4.67
2018-03-29T16:02:52.933Z,4.73
2018-03-29T16:05:20.498Z,4.27
2018-03-29T16:07:48.069Z,4.70
2018-03-29T16:10:15.596Z,4.47
2018-03-29T16:12:43.152Z,4.50
2018-03-29T16:15:11.418Z,4.30
2018-03-29T16:17:39.935Z,4.60
2018-03-29T16:20:08.216Z,4.23
2018-03-29T16:22:36.526Z,4.10
2018-03-29T16:25:04.114Z,4.30
2018-03-29T16:27:31.927Z,4.27
2018-03-29T16:29:59.564Z,3.93
2018-03-29T16:32:27.111Z,3.90
2018-03-29T16:34:54.688Z,4.40
2018-03-29T16:37:22.419Z,3.70
2018-03-29T16:39:49.987Z,4.23
2018-03-29T16:42:19.228Z,4.10
2018-03-29T16:44:47.761Z,4.00
2018-03-29T16:47:15.300Z,4.00
2018-03-29T16:49:42.831Z,3.63
2018-03-29T16:52:11.870Z,4.27
2018-03-29T16:54:40.180Z,3.30
2018-03-29T16:57:07.743Z,3.23
2018-03-29T16:59:35.283Z,2.90
2018-03-29T17:02:03.655Z,2.73
2018-03-29T17:04:32.178Z,2.90
2018-03-29T17:07:00.041Z,2.90
2018-03-29T17:09:27.575Z,3.07
2018-03-29T17:11:55.084Z,3.60
2018-03-29T17:14:22.616Z,3.63
2018-03-29T17:16:50.165Z,2.93
2018-03-29T17:19:17.737Z,3.23
2018-03-29T17:21:45.260Z,3.03
2018-03-29T17:24:12.789Z,3.53
2018-03-29T17:26:40.302Z,3.47
2018-03-29T17:29:07.883Z,3.40
2018-03-29T17:31:35.444Z,3.30
2018-03-29T17:34:03.021Z,3.57
2018-03-29T17:36:31.362Z,3.60
2018-03-29T17:38:58.896Z,3.30
2018-03-29T17:41:27.232Z,3.90
2018-03-29T17:43:54.735Z,3.60
2018-03-29T17:46:22.267Z,3.83
2018-03-29T17:48:49.775Z,3.90
2018-03-29T17:51:17.299Z,4.53
2018-03-29T17:53:44.808Z,4.70
2018-03-29T17:56:12.392Z,3.67
2018-03-29T17:58:39.897Z,4.10
2018-03-29T18:01:07.796Z,3.80
2018-03-29T18:03:35.308Z,4.00
2018-03-29T18:06:02.872Z,4.63
2018-03-29T18:08:30.471Z,4.87
2018-03-29T18:10:58.790Z,4.40
2018-03-29T18:13:26.331Z,5.00
2018-03-29T18:15:54.603Z,4.90
2018-03-29T18:18:22.124Z,5.40
2018-03-29T18:20:49.739Z,4.70
2018-03-29T18:23:17.252Z,4.90
2018-03-29T18:25:44.770Z,4.40
2018-03-29T18:28:13.090Z,5.03
2018-03-29T18:30:41.365Z,4.10
2018-03-29T18:33:08.875Z,4.20
2018-03-29T18:35:36.400Z,4.67
2018-03-29T18:38:04.024Z,4.33
2018-03-29T18:40:31.568Z,4.07
2018-03-29T18:42:59.130Z,4.83
2018-03-29T18:45:28.795Z,3.60
2018-03-29T18:47:56.316Z,4.13
2018-03-29T18:50:23.873Z,4.67
2018-03-29T18:52:51.392Z,4.23
2018-03-29T18:55:18.960Z,4.63
2018-03-29T18:57:46.475Z,4.87
2018-03-29T19:00:13.979Z,4.40
2018-03-29T19:02:42.273Z,4.37
2018-03-29T19:05:10.552Z,5.27
2018-03-29T19:07:38.844Z,5.20
2018-03-29T19:10:07.120Z,4.77
2018-03-29T19:12:34.685Z,4.80
2018-03-29T19:15:02.300Z,4.83
2018-03-29T19:17:29.958Z,4.93
2018-03-29T19:19:58.247Z,5.07
2018-03-29T19:22:25.804Z,5.30
2018-03-29T19:24:54.075Z,5.53
2018-03-29T19:27:21.598Z,4.87
2018-03-29T19:29:49.162Z,5.43
2018-03-29T19:32:16.688Z,5.17
2018-03-29T19:34:44.211Z,5.10
2018-03-29T19:37:11.729Z,5.40
2018-03-29T19:39:39.261Z,4.70
2018-03-29T19:42:06.777Z,5.17
2018-03-29T19:44:35.228Z,5.47
2018-03-29T19:47:02.799Z,5.00
2018-03-29T19:49:30.477Z,5.07
2018-03-29T19:51:57.983Z,5.37
2018-03-29T19:54:26.280Z,5.00
2018-03-29T19:56:54.694Z,5.13
2018-03-29T19:59:22.227Z,4.77
2018-03-29T20:01:49.760Z,5.00
2018-03-29T20:04:17.282Z,5.00
2018-03-29T20:06:44.803Z,5.27
2018-03-29T20:09:12.299Z,5.10
2018-03-29T20:11:39.824Z,4.90
2018-03-29T20:14:07.340Z,5.43
2018-03-29T20:16:34.921Z,5.70
2018-03-29T20:19:02.552Z,5.10
2018-03-29T20:21:30.096Z,5.13
2018-03-29T20:23:57.640Z,5.10
2018-03-29T20:26:25.151Z,5.13
2018-03-29T20:28:52.828Z,5.40
2018-03-29T20:31:20.339Z,5.07
2018-03-29T20:33:47.876Z,5.40
2018-03-29T20:36:15.403Z,4.70
2018-03-29T20:38:43.706Z,5.33
2018-03-29T20:41:11.985Z,5.10
2018-03-29T20:43:40.279Z,5.30
2018-03-29T20:46:08.552Z,5.27
2018-03-29T20:48:36.078Z,4.90
2018-03-29T20:51:03.631Z,4.77
2018-03-29T20:53:32.409Z,4.90
2018-03-29T20:56:00.155Z,5.07
2018-03-29T20:58:28.508Z,4.93
2018-03-29T21:00:56.038Z,5.63
2018-03-29T21:03:23.548Z,5.17
2018-03-29T21:05:51.148Z,5.33
2018-03-29T21:08:18.683Z,5.10
2018-03-29T21:10:46.227Z,4.80
2018-03-29T21:13:14.499Z,5.27
2018-03-29T21:15:42.014Z,4.50
2018-03-29T21:18:09.543Z,4.77
2018-03-29T21:20:37.045Z,5.10
2018-03-29T21:23:04.609Z,4.80
2018-03-29T21:25:32.146Z,4.67
2018-03-29T21:27:59.708Z,4.60
2018-03-29T21:30:27.280Z,4.77
2018-03-29T21:32:54.827Z,5.17
2018-03-29T21:35:22.384Z,4.60
2018-03-29T21:37:50.635Z,4.37
2018-03-29T21:40:18.956Z,4.50
2018-03-29T21:42:46.463Z,4.53
2018-03-29T21:45:13.994Z,4.40
2018-03-29T21:47:41.541Z,4.33
2018-03-29T21:50:09.839Z,4.33
2018-03-29T21:52:38.117Z,4.80
2018-03-29T21:55:06.414Z,4.70
2018-03-29T21:57:34.723Z,4.77
2018-03-29T22:00:02.282Z,4.70
2018-03-29T22:02:29.918Z,4.40
2018-03-29T22:04:58.235Z,4.57
2018-03-29T22:07:25.829Z,4.43
2018-03-29T22:09:53.337Z,4.40
2018-03-29T22:12:20.878Z,4.43
2018-03-29T22:14:48.430Z,4.00
2018-03-29T22:17:15.964Z,4.33
2018-03-29T22:19:43.472Z,4.43
2018-03-29T22:22:11.004Z,3.90
2018-03-29T22:24:38.523Z,4.00
2018-03-29T22:27:06.158Z,3.60
2018-03-29T22:29:33.683Z,3.80
2018-03-29T22:32:01.291Z,3.80
2018-03-29T22:34:29.634Z,3.70
2018-03-29T22:36:57.143Z,3.90
2018-03-29T22:39:24.680Z,3.17
2018-03-29T22:41:52.188Z,3.47
2018-03-29T22:44:19.758Z,3.63
2018-03-29T22:46:47.289Z,3.90
2018-03-29T22:49:14.877Z,3.60
2018-03-29T22:51:42.360Z,3.57
2018-03-29T22:54:10.168Z,3.80
2018-03-29T22:56:38.445Z,3.57
2018-03-29T22:59:05.975Z,3.53
2018-03-29T23:01:33.542Z,3.47
2018-03-29T23:04:01.129Z,3.33
2018-03-29T23:06:28.764Z,3.70
2018-03-29T23:08:56.292Z,3.77
2018-03-29T23:11:23.823Z,3.47
2018-03-29T23:13:51.347Z,3.63
2018-03-29T23:16:19.672Z,3.83
2018-03-29T23:18:47.183Z,3.87
2018-03-29T23:21:14.720Z,3.80
2018-03-29T23:23:42.227Z,3.53
2018-03-29T23:26:09.735Z,3.67
2018-03-29T23:28:37.263Z,4.20
2018-03-29T23:31:04.827Z,3.57
2018-03-29T23:33:32.432Z,3.80
2018-03-29T23:36:00.752Z,3.30
2018-03-29T23:38:28.329Z,4.10
2018-03-29T23:40:55.848Z,3.87
2018-03-29T23:43:24.138Z,3.77
2018-03-29T23:45:51.666Z,3.60
2018-03-29T23:48:19.186Z,3.47
2018-03-29T23:50:46.723Z,3.50
2018-03-29T23:53:14.230Z,3.60
2018-03-29T23:55:42.528Z,3.23
2018-03-29T23:58:17.493Z,3.80
